Archival Weather

Chicago O'Hare International

Chicago, Illinois (KORD)

Report from: Friday, September 23, 2022 10:51 PM CDT
Current time: Sunday, December 4, 2022 6:40 AM CST

Current weather
Weather history
Weather forecast

Temperature14.4°C (57.9°F)
Dew point5.6°C (42.1°F)
Winds 5 kts (2.6 m/s, 5.8 mph) South (180°)
Visibility10 mi. (16.1 km)
Clouds Ceiling: Overcast 6,500 ft. (1,981 m)
Altimeter30.06 in.Hg (1018 mB)
Relative humidity55 %
Density altitude-96 ft. (-29 m)
Sea-level pressure101.8 kPa (1018 mB, 30.06 in.Hg)
Remarks Automated weather observing station with precipitation discriminator
Flight conditions Visual Meteorological Conditions
Raw dataKORD 240351Z 18005KT 10SM OVC065 14/06 A3006 RMK AO2 SLP180 T01440056
An error has occurred. This application may no longer respond until reloaded. Reload 🗙